Gambell Airport Gambell US
ICAO: PAGM
IATA:
Category: Medium
Scheduled Services:

Elevation: 27 ft
TransAlt. 0 ft.

Airport Communications:
AWOS 3:125.9
ANCHORAGE CNTR:132.2
CTAF:122.7
NOME RDO:122
TWEB:36.9

PAGM Zoom In..

Runways:

(A) RW 16 length 4499 ft width 96 ft
---- / hdg 160

(B) RW 34 length 4499 ft width 96 ft
---- / hdg 340

Location; PAGM
Day. 22 / Time. 01.56 Zulu
* Altimeter: 29.85
* Temperature: 01° c. 33.8°f.
* Wind from: 040° Speed 11 kn.
Dewpoint: -03° c.
Visibility: 10 Statute Miles.
Clouds: Scattered 1400 ft.
Clouds: Overcast 2200 ft.

PAGM 220156Z AUTO 04011KT 10SM SCT014 OVC022 01/M03 A2985 RMK AO2 SLP113 T00061028 FZRANO


Wind From 040°
Speed 11 kn.

 
 
jpsmedia.com for Web Design SOUNDCLOUD worldairports.se 2018   terms of use